sensor_id;sensor_type;location;lat;lon;timestamp;P1;durP1;ratioP1;P2;durP2;ratioP2
77417;SDS011;66490;51.484;0.026;2024-03-25T00:02:37;11.30;;;4.68;;
77417;SDS011;66490;51.484;0.026;2024-03-25T00:05:21;11.57;;;5.45;;
77417;SDS011;66490;51.484;0.026;2024-03-25T00:08:09;12.48;;;4.15;;
77417;SDS011;66490;51.484;0.026;2024-03-25T00:10:53;14.48;;;5.13;;
77417;SDS011;66490;51.484;0.026;2024-03-25T00:13:38;11.83;;;4.90;;
77417;SDS011;66490;51.484;0.026;2024-03-25T00:16:22;12.70;;;4.93;;
77417;SDS011;66490;51.484;0.026;2024-03-25T00:19:06;11.55;;;5.32;;
77417;SDS011;66490;51.484;0.026;2024-03-25T00:21:50;14.88;;;4.70;;
77417;SDS011;66490;51.484;0.026;2024-03-25T00:24:33;14.13;;;4.63;;
77417;SDS011;66490;51.484;0.026;2024-03-25T00:27:17;12.63;;;4.27;;
77417;SDS011;66490;51.484;0.026;2024-03-25T00:30:02;17.50;;;4.72;;
77417;SDS011;66490;51.484;0.026;2024-03-25T00:32:46;19.90;;;6.03;;
77417;SDS011;66490;51.484;0.026;2024-03-25T00:35:30;15.77;;;5.15;;
77417;SDS011;66490;51.484;0.026;2024-03-25T00:38:14;16.42;;;4.43;;
77417;SDS011;66490;51.484;0.026;2024-03-25T00:40:58;14.23;;;4.70;;
77417;SDS011;66490;51.484;0.026;2024-03-25T00:43:42;15.63;;;4.47;;
77417;SDS011;66490;51.484;0.026;2024-03-25T00:46:27;12.45;;;4.20;;
77417;SDS011;66490;51.484;0.026;2024-03-25T00:49:11;17.48;;;4.40;;
77417;SDS011;66490;51.484;0.026;2024-03-25T00:51:56;14.20;;;4.85;;
77417;SDS011;66490;51.484;0.026;2024-03-25T00:54:40;14.03;;;4.67;;
77417;SDS011;66490;51.484;0.026;2024-03-25T00:57:24;12.05;;;4.22;;
77417;SDS011;66490;51.484;0.026;2024-03-25T01:00:08;13.98;;;4.53;;
77417;SDS011;66490;51.484;0.026;2024-03-25T01:02:52;12.48;;;3.40;;
77417;SDS011;66490;51.484;0.026;2024-03-25T01:05:36;14.57;;;5.43;;
77417;SDS011;66490;51.484;0.026;2024-03-25T01:08:20;12.77;;;3.50;;
77417;SDS011;66490;51.484;0.026;2024-03-25T01:11:04;13.23;;;4.30;;
77417;SDS011;66490;51.484;0.026;2024-03-25T01:13:50;13.32;;;4.03;;
77417;SDS011;66490;51.484;0.026;2024-03-25T01:16:34;12.65;;;4.15;;
77417;SDS011;66490;51.484;0.026;2024-03-25T01:19:18;13.88;;;4.30;;
77417;SDS011;66490;51.484;0.026;2024-03-25T01:22:04;16.67;;;4.27;;
77417;SDS011;66490;51.484;0.026;2024-03-25T01:24:48;12.55;;;4.05;;
77417;SDS011;66490;51.484;0.026;2024-03-25T01:27:33;11.55;;;4.10;;
77417;SDS011;66490;51.484;0.026;2024-03-25T01:30:17;10.70;;;3.67;;
77417;SDS011;66490;51.484;0.026;2024-03-25T01:33:02;14.32;;;4.00;;
77417;SDS011;66490;51.484;0.026;2024-03-25T01:35:46;14.67;;;3.23;;
77417;SDS011;66490;51.484;0.026;2024-03-25T01:38:30;9.88;;;3.58;;
77417;SDS011;66490;51.484;0.026;2024-03-25T01:41:14;9.07;;;3.17;;
77417;SDS011;66490;51.484;0.026;2024-03-25T01:44:04;8.80;;;3.38;;
77417;SDS011;66490;51.484;0.026;2024-03-25T01:46:48;7.93;;;3.17;;
77417;SDS011;66490;51.484;0.026;2024-03-25T01:49:32;10.43;;;2.60;;
77417;SDS011;66490;51.484;0.026;2024-03-25T01:52:16;9.93;;;2.95;;
77417;SDS011;66490;51.484;0.026;2024-03-25T01:55:00;12.38;;;3.17;;
77417;SDS011;66490;51.484;0.026;2024-03-25T01:57:47;9.93;;;2.95;;
77417;SDS011;66490;51.484;0.026;2024-03-25T02:00:31;15.10;;;3.35;;
77417;SDS011;66490;51.484;0.026;2024-03-25T02:03:15;10.90;;;2.90;;
77417;SDS011;66490;51.484;0.026;2024-03-25T02:06:01;13.20;;;3.70;;
77417;SDS011;66490;51.484;0.026;2024-03-25T02:08:46;17.58;;;3.08;;
77417;SDS011;66490;51.484;0.026;2024-03-25T02:11:30;16.42;;;2.72;;
77417;SDS011;66490;51.484;0.026;2024-03-25T02:14:16;12.60;;;2.85;;
77417;SDS011;66490;51.484;0.026;2024-03-25T02:17:00;13.37;;;2.80;;
77417;SDS011;66490;51.484;0.026;2024-03-25T02:19:45;12.30;;;2.78;;
77417;SDS011;66490;51.484;0.026;2024-03-25T02:22:29;12.70;;;2.97;;
77417;SDS011;66490;51.484;0.026;2024-03-25T02:25:15;9.98;;;2.80;;
77417;SDS011;66490;51.484;0.026;2024-03-25T02:28:01;10.35;;;3.20;;
77417;SDS011;66490;51.484;0.026;2024-03-25T02:30:45;12.83;;;3.30;;
77417;SDS011;66490;51.484;0.026;2024-03-25T02:33:30;14.18;;;3.08;;
77417;SDS011;66490;51.484;0.026;2024-03-25T02:36:14;13.38;;;3.88;;
77417;SDS011;66490;51.484;0.026;2024-03-25T02:38:58;10.02;;;2.95;;
77417;SDS011;66490;51.484;0.026;2024-03-25T02:41:43;11.65;;;3.20;;
77417;SDS011;66490;51.484;0.026;2024-03-25T02:44:27;12.80;;;3.13;;
77417;SDS011;66490;51.484;0.026;2024-03-25T02:47:11;13.18;;;2.50;;
77417;SDS011;66490;51.484;0.026;2024-03-25T02:49:55;10.15;;;2.53;;
77417;SDS011;66490;51.484;0.026;2024-03-25T02:52:39;9.65;;;2.88;;
77417;SDS011;66490;51.484;0.026;2024-03-25T02:55:26;14.02;;;3.30;;
77417;SDS011;66490;51.484;0.026;2024-03-25T02:58:10;11.30;;;2.60;;
77417;SDS011;66490;51.484;0.026;2024-03-25T03:00:54;10.98;;;3.47;;
77417;SDS011;66490;51.484;0.026;2024-03-25T03:03:37;9.07;;;2.50;;
77417;SDS011;66490;51.484;0.026;2024-03-25T03:06:21;11.30;;;2.78;;
77417;SDS011;66490;51.484;0.026;2024-03-25T03:09:06;13.40;;;3.15;;
77417;SDS011;66490;51.484;0.026;2024-03-25T03:11:50;11.50;;;2.90;;
77417;SDS011;66490;51.484;0.026;2024-03-25T03:14:34;16.70;;;2.92;;
77417;SDS011;66490;51.484;0.026;2024-03-25T03:17:18;9.75;;;3.10;;
77417;SDS011;66490;51.484;0.026;2024-03-25T03:20:03;11.07;;;3.08;;
77417;SDS011;66490;51.484;0.026;2024-03-25T03:22:47;14.18;;;3.40;;
77417;SDS011;66490;51.484;0.026;2024-03-25T03:25:31;11.77;;;3.00;;
77417;SDS011;66490;51.484;0.026;2024-03-25T03:28:17;14.98;;;3.30;;
77417;SDS011;66490;51.484;0.026;2024-03-25T03:31:01;14.13;;;4.05;;
77417;SDS011;66490;51.484;0.026;2024-03-25T03:33:45;14.23;;;3.38;;
77417;SDS011;66490;51.484;0.026;2024-03-25T03:36:29;14.40;;;4.43;;
77417;SDS011;66490;51.484;0.026;2024-03-25T03:39:15;9.73;;;2.90;;
77417;SDS011;66490;51.484;0.026;2024-03-25T03:41:59;9.32;;;2.95;;
77417;SDS011;66490;51.484;0.026;2024-03-25T03:44:43;10.15;;;2.60;;
77417;SDS011;66490;51.484;0.026;2024-03-25T03:47:27;12.98;;;2.78;;
77417;SDS011;66490;51.484;0.026;2024-03-25T03:50:11;16.05;;;2.83;;
77417;SDS011;66490;51.484;0.026;2024-03-25T03:52:55;11.60;;;2.77;;
77417;SDS011;66490;51.484;0.026;2024-03-25T03:55:39;12.80;;;3.13;;
77417;SDS011;66490;51.484;0.026;2024-03-25T03:58:23;11.38;;;3.05;;
77417;SDS011;66490;51.484;0.026;2024-03-25T04:01:14;13.55;;;2.83;;
77417;SDS011;66490;51.484;0.026;2024-03-25T04:03:59;9.00;;;3.08;;
77417;SDS011;66490;51.484;0.026;2024-03-25T04:06:43;12.47;;;2.27;;
77417;SDS011;66490;51.484;0.026;2024-03-25T04:09:30;10.57;;;2.72;;
77417;SDS011;66490;51.484;0.026;2024-03-25T04:12:14;9.05;;;2.80;;
77417;SDS011;66490;51.484;0.026;2024-03-25T04:14:58;13.88;;;3.28;;
77417;SDS011;66490;51.484;0.026;2024-03-25T04:17:43;10.77;;;3.25;;
77417;SDS011;66490;51.484;0.026;2024-03-25T04:20:28;12.00;;;3.00;;
77417;SDS011;66490;51.484;0.026;2024-03-25T04:23:12;10.45;;;3.47;;
77417;SDS011;66490;51.484;0.026;2024-03-25T04:26:00;14.63;;;3.53;;
77417;SDS011;66490;51.484;0.026;2024-03-25T04:28:44;10.70;;;2.90;;
77417;SDS011;66490;51.484;0.026;2024-03-25T04:31:28;11.60;;;4.05;;
77417;SDS011;66490;51.484;0.026;2024-03-25T04:34:12;14.60;;;3.47;;
77417;SDS011;66490;51.484;0.026;2024-03-25T04:36:56;16.52;;;3.88;;
77417;SDS011;66490;51.484;0.026;2024-03-25T04:39:40;15.07;;;3.72;;
77417;SDS011;66490;51.484;0.026;2024-03-25T04:42:24;10.80;;;3.58;;
77417;SDS011;66490;51.484;0.026;2024-03-25T04:45:08;13.57;;;3.60;;
77417;SDS011;66490;51.484;0.026;2024-03-25T04:47:52;13.67;;;3.13;;
77417;SDS011;66490;51.484;0.026;2024-03-25T04:50:36;11.48;;;2.85;;
77417;SDS011;66490;51.484;0.026;2024-03-25T04:53:20;17.27;;;4.13;;
77417;SDS011;66490;51.484;0.026;2024-03-25T04:56:04;14.70;;;3.88;;
77417;SDS011;66490;51.484;0.026;2024-03-25T04:58:49;12.77;;;3.70;;
77417;SDS011;66490;51.484;0.026;2024-03-25T05:01:33;13.33;;;3.87;;
77417;SDS011;66490;51.484;0.026;2024-03-25T05:04:20;15.57;;;3.70;;
77417;SDS011;66490;51.484;0.026;2024-03-25T05:07:04;16.48;;;4.55;;
77417;SDS011;66490;51.484;0.026;2024-03-25T05:09:48;10.82;;;3.50;;
77417;SDS011;66490;51.484;0.026;2024-03-25T05:12:32;10.50;;;4.22;;
77417;SDS011;66490;51.484;0.026;2024-03-25T05:15:16;11.83;;;3.33;;
77417;SDS011;66490;51.484;0.026;2024-03-25T05:18:00;12.05;;;3.75;;
77417;SDS011;66490;51.484;0.026;2024-03-25T05:20:44;10.07;;;3.92;;
77417;SDS011;66490;51.484;0.026;2024-03-25T05:23:28;12.20;;;3.28;;
77417;SDS011;66490;51.484;0.026;2024-03-25T05:26:12;13.65;;;4.10;;
77417;SDS011;66490;51.484;0.026;2024-03-25T05:28:56;12.33;;;3.97;;
77417;SDS011;66490;51.484;0.026;2024-03-25T05:31:55;15.43;;;3.78;;
77417;SDS011;66490;51.484;0.026;2024-03-25T05:34:39;13.30;;;3.70;;
77417;SDS011;66490;51.484;0.026;2024-03-25T05:37:23;14.57;;;3.67;;
77417;SDS011;66490;51.484;0.026;2024-03-25T05:40:07;15.15;;;4.53;;
77417;SDS011;66490;51.484;0.026;2024-03-25T05:42:55;13.97;;;4.00;;
77417;SDS011;66490;51.484;0.026;2024-03-25T05:45:38;15.70;;;3.60;;
77417;SDS011;66490;51.484;0.026;2024-03-25T05:48:26;16.75;;;3.90;;
77417;SDS011;66490;51.484;0.026;2024-03-25T05:51:10;16.13;;;3.83;;
77417;SDS011;66490;51.484;0.026;2024-03-25T05:53:54;13.63;;;3.97;;
77417;SDS011;66490;51.484;0.026;2024-03-25T05:56:38;16.03;;;4.07;;
77417;SDS011;66490;51.484;0.026;2024-03-25T05:59:22;13.18;;;3.58;;
77417;SDS011;66490;51.484;0.026;2024-03-25T06:02:06;22.83;;;4.65;;
77417;SDS011;66490;51.484;0.026;2024-03-25T06:04:50;12.95;;;4.10;;
77417;SDS011;66490;51.484;0.026;2024-03-25T06:07:34;12.45;;;4.05;;
77417;SDS011;66490;51.484;0.026;2024-03-25T06:10:18;12.97;;;4.13;;
77417;SDS011;66490;51.484;0.026;2024-03-25T06:13:02;9.75;;;3.15;;
77417;SDS011;66490;51.484;0.026;2024-03-25T06:15:46;15.60;;;4.18;;
77417;SDS011;66490;51.484;0.026;2024-03-25T06:18:30;10.18;;;3.55;;
77417;SDS011;66490;51.484;0.026;2024-03-25T06:21:15;18.55;;;4.72;;
77417;SDS011;66490;51.484;0.026;2024-03-25T06:23:59;15.73;;;3.77;;
77417;SDS011;66490;51.484;0.026;2024-03-25T06:26:43;13.98;;;3.45;;
77417;SDS011;66490;51.484;0.026;2024-03-25T06:29:27;11.88;;;3.55;;
77417;SDS011;66490;51.484;0.026;2024-03-25T06:32:11;21.50;;;4.25;;
77417;SDS011;66490;51.484;0.026;2024-03-25T06:35:13;15.30;;;4.25;;
77417;SDS011;66490;51.484;0.026;2024-03-25T06:37:58;14.73;;;3.17;;
77417;SDS011;66490;51.484;0.026;2024-03-25T06:40:42;18.10;;;3.28;;
77417;SDS011;66490;51.484;0.026;2024-03-25T06:43:26;10.63;;;3.25;;
77417;SDS011;66490;51.484;0.026;2024-03-25T06:46:10;19.73;;;4.13;;
77417;SDS011;66490;51.484;0.026;2024-03-25T06:48:54;13.30;;;4.20;;
77417;SDS011;66490;51.484;0.026;2024-03-25T06:51:38;19.77;;;3.90;;
77417;SDS011;66490;51.484;0.026;2024-03-25T06:54:23;13.45;;;3.53;;
77417;SDS011;66490;51.484;0.026;2024-03-25T06:57:07;21.05;;;3.33;;
77417;SDS011;66490;51.484;0.026;2024-03-25T06:59:51;19.02;;;3.38;;
77417;SDS011;66490;51.484;0.026;2024-03-25T07:02:35;11.93;;;3.53;;
77417;SDS011;66490;51.484;0.026;2024-03-25T07:08:04;11.43;;;3.30;;
77417;SDS011;66490;51.484;0.026;2024-03-25T07:10:49;16.80;;;3.70;;
77417;SDS011;66490;51.484;0.026;2024-03-25T07:13:33;13.95;;;3.17;;
77417;SDS011;66490;51.484;0.026;2024-03-25T07:16:22;13.48;;;2.92;;
77417;SDS011;66490;51.484;0.026;2024-03-25T07:19:06;9.70;;;2.97;;
77417;SDS011;66490;51.484;0.026;2024-03-25T07:21:51;13.02;;;3.70;;
77417;SDS011;66490;51.484;0.026;2024-03-25T07:24:35;14.50;;;2.97;;
77417;SDS011;66490;51.484;0.026;2024-03-25T07:27:19;16.40;;;2.92;;
77417;SDS011;66490;51.484;0.026;2024-03-25T07:32:49;11.57;;;2.90;;
77417;SDS011;66490;51.484;0.026;2024-03-25T07:35:38;14.40;;;2.88;;
77417;SDS011;66490;51.484;0.026;2024-03-25T07:38:26;14.55;;;2.58;;
77417;SDS011;66490;51.484;0.026;2024-03-25T07:44:48;17.50;;;3.30;;
77417;SDS011;66490;51.484;0.026;2024-03-25T07:47:38;14.43;;;2.70;;
77417;SDS011;66490;51.484;0.026;2024-03-25T07:50:24;11.02;;;2.20;;
77417;SDS011;66490;51.484;0.026;2024-03-25T07:53:08;15.65;;;2.42;;
77417;SDS011;66490;51.484;0.026;2024-03-25T07:55:53;12.80;;;2.22;;
77417;SDS011;66490;51.484;0.026;2024-03-25T07:58:39;10.27;;;2.38;;
77417;SDS011;66490;51.484;0.026;2024-03-25T08:01:24;12.67;;;2.60;;
77417;SDS011;66490;51.484;0.026;2024-03-25T08:04:17;12.93;;;2.22;;
77417;SDS011;66490;51.484;0.026;2024-03-25T08:07:11;9.95;;;2.03;;
77417;SDS011;66490;51.484;0.026;2024-03-25T08:09:58;12.27;;;3.10;;
77417;SDS011;66490;51.484;0.026;2024-03-25T08:12:45;12.98;;;2.65;;
77417;SDS011;66490;51.484;0.026;2024-03-25T08:15:38;11.00;;;2.30;;
77417;SDS011;66490;51.484;0.026;2024-03-25T08:18:31;10.43;;;2.30;;
77417;SDS011;66490;51.484;0.026;2024-03-25T08:21:14;10.05;;;1.98;;
77417;SDS011;66490;51.484;0.026;2024-03-25T08:23:59;17.05;;;3.25;;
77417;SDS011;66490;51.484;0.026;2024-03-25T08:26:44;12.98;;;2.65;;
77417;SDS011;66490;51.484;0.026;2024-03-25T08:29:28;17.27;;;2.63;;
77417;SDS011;66490;51.484;0.026;2024-03-25T08:32:12;14.30;;;2.33;;
77417;SDS011;66490;51.484;0.026;2024-03-25T08:34:59;8.60;;;1.77;;
77417;SDS011;66490;51.484;0.026;2024-03-25T08:37:46;12.10;;;1.98;;
77417;SDS011;66490;51.484;0.026;2024-03-25T08:40:35;12.63;;;2.97;;
77417;SDS011;66490;51.484;0.026;2024-03-25T08:43:22;9.77;;;1.43;;
77417;SDS011;66490;51.484;0.026;2024-03-25T08:46:06;9.65;;;1.63;;
77417;SDS011;66490;51.484;0.026;2024-03-25T08:49:00;10.75;;;1.58;;
77417;SDS011;66490;51.484;0.026;2024-03-25T08:51:43;7.15;;;1.73;;
77417;SDS011;66490;51.484;0.026;2024-03-25T08:54:28;9.10;;;2.22;;
77417;SDS011;66490;51.484;0.026;2024-03-25T08:57:20;10.07;;;1.70;;
77417;SDS011;66490;51.484;0.026;2024-03-25T09:00:42;10.82;;;2.17;;
77417;SDS011;66490;51.484;0.026;2024-03-25T09:06:27;13.15;;;1.92;;
77417;SDS011;66490;51.484;0.026;2024-03-25T09:09:39;8.50;;;2.28;;
77417;SDS011;66490;51.484;0.026;2024-03-25T09:18:25;9.05;;;1.92;;
77417;SDS011;66490;51.484;0.026;2024-03-25T09:23:53;13.07;;;1.83;;
77417;SDS011;66490;51.484;0.026;2024-03-25T09:29:28;10.35;;;1.77;;
77417;SDS011;66490;51.484;0.026;2024-03-25T09:32:14;7.85;;;1.40;;
77417;SDS011;66490;51.484;0.026;2024-03-25T09:35:11;8.68;;;1.88;;
77417;SDS011;66490;51.484;0.026;2024-03-25T09:38:13;12.98;;;1.95;;
77417;SDS011;66490;51.484;0.026;2024-03-25T09:41:08;8.67;;;1.83;;
77417;SDS011;66490;51.484;0.026;2024-03-25T09:47:07;12.73;;;1.85;;
77417;SDS011;66490;51.484;0.026;2024-03-25T09:50:02;10.35;;;1.85;;
77417;SDS011;66490;51.484;0.026;2024-03-25T09:52:56;12.20;;;1.85;;
77417;SDS011;66490;51.484;0.026;2024-03-25T09:55:56;7.57;;;2.10;;
77417;SDS011;66490;51.484;0.026;2024-03-25T10:01:53;9.52;;;1.42;;
77417;SDS011;66490;51.484;0.026;2024-03-25T10:04:47;6.20;;;2.13;;
77417;SDS011;66490;51.484;0.026;2024-03-25T10:07:34;7.65;;;1.67;;
77417;SDS011;66490;51.484;0.026;2024-03-25T10:10:20;5.87;;;1.43;;
77417;SDS011;66490;51.484;0.026;2024-03-25T10:13:08;7.70;;;1.40;;
77417;SDS011;66490;51.484;0.026;2024-03-25T10:15:54;12.57;;;2.42;;
77417;SDS011;66490;51.484;0.026;2024-03-25T10:18:38;11.10;;;1.55;;
77417;SDS011;66490;51.484;0.026;2024-03-25T10:21:25;11.88;;;2.33;;
77417;SDS011;66490;51.484;0.026;2024-03-25T10:24:12;6.80;;;1.33;;
77417;SDS011;66490;51.484;0.026;2024-03-25T10:27:09;7.35;;;1.38;;
77417;SDS011;66490;51.484;0.026;2024-03-25T10:29:55;9.88;;;1.48;;
77417;SDS011;66490;51.484;0.026;2024-03-25T10:32:42;5.53;;;1.58;;
77417;SDS011;66490;51.484;0.026;2024-03-25T10:35:27;9.73;;;1.70;;
77417;SDS011;66490;51.484;0.026;2024-03-25T10:38:11;9.77;;;1.50;;
77417;SDS011;66490;51.484;0.026;2024-03-25T10:41:01;11.02;;;1.55;;
77417;SDS011;66490;51.484;0.026;2024-03-25T10:47:20;7.05;;;1.42;;
77417;SDS011;66490;51.484;0.026;2024-03-25T10:50:14;6.93;;;1.70;;
77417;SDS011;66490;51.484;0.026;2024-03-25T10:53:11;11.10;;;1.67;;
77417;SDS011;66490;51.484;0.026;2024-03-25T10:55:58;18.98;;;2.70;;
77417;SDS011;66490;51.484;0.026;2024-03-25T10:58:46;8.50;;;1.95;;
77417;SDS011;66490;51.484;0.026;2024-03-25T11:01:31;7.20;;;1.98;;
77417;SDS011;66490;51.484;0.026;2024-03-25T11:04:16;9.98;;;2.75;;
77417;SDS011;66490;51.484;0.026;2024-03-25T11:07:13;8.23;;;1.53;;
77417;SDS011;66490;51.484;0.026;2024-03-25T11:10:04;6.82;;;1.85;;
77417;SDS011;66490;51.484;0.026;2024-03-25T11:12:53;7.63;;;1.90;;
77417;SDS011;66490;51.484;0.026;2024-03-25T11:15:40;10.48;;;2.50;;
77417;SDS011;66490;51.484;0.026;2024-03-25T11:18:27;10.63;;;2.83;;
77417;SDS011;66490;51.484;0.026;2024-03-25T11:21:13;8.00;;;1.70;;
77417;SDS011;66490;51.484;0.026;2024-03-25T11:24:05;13.57;;;2.55;;
77417;SDS011;66490;51.484;0.026;2024-03-25T11:26:52;7.70;;;2.67;;
77417;SDS011;66490;51.484;0.026;2024-03-25T11:29:37;11.23;;;1.85;;
77417;SDS011;66490;51.484;0.026;2024-03-25T11:32:21;10.02;;;2.10;;
77417;SDS011;66490;51.484;0.026;2024-03-25T11:35:05;9.73;;;2.10;;
77417;SDS011;66490;51.484;0.026;2024-03-25T11:37:49;12.88;;;2.00;;
77417;SDS011;66490;51.484;0.026;2024-03-25T11:40:37;7.97;;;1.98;;
77417;SDS011;66490;51.484;0.026;2024-03-25T11:43:23;12.30;;;3.15;;
77417;SDS011;66490;51.484;0.026;2024-03-25T11:46:08;7.47;;;2.40;;
77417;SDS011;66490;51.484;0.026;2024-03-25T11:48:53;9.77;;;1.97;;
77417;SDS011;66490;51.484;0.026;2024-03-25T11:51:39;8.63;;;2.00;;
77417;SDS011;66490;51.484;0.026;2024-03-25T11:54:28;10.68;;;2.92;;
77417;SDS011;66490;51.484;0.026;2024-03-25T11:57:12;10.02;;;1.98;;
77417;SDS011;66490;51.484;0.026;2024-03-25T11:59:59;10.93;;;2.38;;
77417;SDS011;66490;51.484;0.026;2024-03-25T12:02:45;9.60;;;2.30;;
77417;SDS011;66490;51.484;0.026;2024-03-25T12:05:29;11.70;;;2.15;;
77417;SDS011;66490;51.484;0.026;2024-03-25T12:08:13;9.18;;;2.30;;
77417;SDS011;66490;51.484;0.026;2024-03-25T12:10:57;13.27;;;2.60;;
77417;SDS011;66490;51.484;0.026;2024-03-25T12:14:01;10.95;;;2.58;;
77417;SDS011;66490;51.484;0.026;2024-03-25T12:16:45;10.07;;;1.70;;
77417;SDS011;66490;51.484;0.026;2024-03-25T12:19:33;7.28;;;1.52;;
77417;SDS011;66490;51.484;0.026;2024-03-25T12:22:18;5.75;;;1.77;;
77417;SDS011;66490;51.484;0.026;2024-03-25T12:25:04;7.20;;;1.85;;
77417;SDS011;66490;51.484;0.026;2024-03-25T12:27:58;12.90;;;2.22;;
77417;SDS011;66490;51.484;0.026;2024-03-25T12:30:52;8.83;;;1.63;;
77417;SDS011;66490;51.484;0.026;2024-03-25T12:33:43;6.85;;;1.75;;
77417;SDS011;66490;51.484;0.026;2024-03-25T12:36:28;9.93;;;2.05;;
77417;SDS011;66490;51.484;0.026;2024-03-25T12:42:15;7.18;;;1.80;;
77417;SDS011;66490;51.484;0.026;2024-03-25T12:45:02;8.80;;;1.50;;
77417;SDS011;66490;51.484;0.026;2024-03-25T12:47:47;8.85;;;1.55;;
77417;SDS011;66490;51.484;0.026;2024-03-25T12:50:31;10.43;;;1.88;;
77417;SDS011;66490;51.484;0.026;2024-03-25T12:53:16;6.95;;;1.48;;
77417;SDS011;66490;51.484;0.026;2024-03-25T12:56:00;10.50;;;2.42;;
77417;SDS011;66490;51.484;0.026;2024-03-25T12:58:44;9.50;;;1.87;;
77417;SDS011;66490;51.484;0.026;2024-03-25T13:01:28;6.57;;;2.17;;
77417;SDS011;66490;51.484;0.026;2024-03-25T13:04:13;12.70;;;2.47;;
77417;SDS011;66490;51.484;0.026;2024-03-25T13:06:59;7.13;;;1.50;;
77417;SDS011;66490;51.484;0.026;2024-03-25T13:09:43;8.35;;;1.92;;
77417;SDS011;66490;51.484;0.026;2024-03-25T13:12:27;7.13;;;1.47;;
77417;SDS011;66490;51.484;0.026;2024-03-25T13:15:12;9.98;;;2.38;;
77417;SDS011;66490;51.484;0.026;2024-03-25T13:17:56;9.63;;;2.03;;
77417;SDS011;66490;51.484;0.026;2024-03-25T13:20:45;7.72;;;1.73;;
77417;SDS011;66490;51.484;0.026;2024-03-25T13:23:30;6.10;;;1.98;;
77417;SDS011;66490;51.484;0.026;2024-03-25T13:26:14;9.23;;;1.63;;
77417;SDS011;66490;51.484;0.026;2024-03-25T13:29:01;8.57;;;1.35;;
77417;SDS011;66490;51.484;0.026;2024-03-25T13:31:46;9.13;;;1.70;;
77417;SDS011;66490;51.484;0.026;2024-03-25T13:34:30;10.02;;;1.85;;
77417;SDS011;66490;51.484;0.026;2024-03-25T13:37:14;10.23;;;2.42;;
77417;SDS011;66490;51.484;0.026;2024-03-25T13:39:58;8.23;;;2.03;;
77417;SDS011;66490;51.484;0.026;2024-03-25T13:42:45;10.10;;;2.15;;
77417;SDS011;66490;51.484;0.026;2024-03-25T13:45:30;7.78;;;2.13;;
77417;SDS011;66490;51.484;0.026;2024-03-25T13:48:15;8.60;;;2.20;;
77417;SDS011;66490;51.484;0.026;2024-03-25T13:50:59;9.55;;;1.70;;
77417;SDS011;66490;51.484;0.026;2024-03-25T13:53:45;10.50;;;2.00;;
77417;SDS011;66490;51.484;0.026;2024-03-25T13:56:31;6.30;;;1.42;;
77417;SDS011;66490;51.484;0.026;2024-03-25T13:59:15;9.35;;;2.03;;
77417;SDS011;66490;51.484;0.026;2024-03-25T14:01:59;10.23;;;2.22;;
77417;SDS011;66490;51.484;0.026;2024-03-25T14:04:43;6.63;;;1.95;;
77417;SDS011;66490;51.484;0.026;2024-03-25T14:07:27;5.93;;;1.60;;
77417;SDS011;66490;51.484;0.026;2024-03-25T14:10:11;8.70;;;1.73;;
77417;SDS011;66490;51.484;0.026;2024-03-25T14:12:58;8.57;;;2.00;;
77417;SDS011;66490;51.484;0.026;2024-03-25T14:15:42;11.00;;;1.98;;
77417;SDS011;66490;51.484;0.026;2024-03-25T14:18:26;9.77;;;1.75;;
77417;SDS011;66490;51.484;0.026;2024-03-25T14:21:13;9.47;;;1.47;;
77417;SDS011;66490;51.484;0.026;2024-03-25T14:23:59;6.68;;;1.17;;
77417;SDS011;66490;51.484;0.026;2024-03-25T14:26:44;8.15;;;1.67;;
77417;SDS011;66490;51.484;0.026;2024-03-25T14:29:30;12.80;;;1.90;;
77417;SDS011;66490;51.484;0.026;2024-03-25T14:32:14;6.65;;;1.80;;
77417;SDS011;66490;51.484;0.026;2024-03-25T14:34:58;7.83;;;1.87;;
77417;SDS011;66490;51.484;0.026;2024-03-25T14:37:42;7.90;;;1.30;;
77417;SDS011;66490;51.484;0.026;2024-03-25T14:40:28;8.40;;;1.73;;
77417;SDS011;66490;51.484;0.026;2024-03-25T14:43:12;14.45;;;1.75;;
77417;SDS011;66490;51.484;0.026;2024-03-25T14:45:57;8.90;;;1.83;;
77417;SDS011;66490;51.484;0.026;2024-03-25T14:48:41;11.47;;;1.50;;
77417;SDS011;66490;51.484;0.026;2024-03-25T14:51:25;9.77;;;1.80;;
77417;SDS011;66490;51.484;0.026;2024-03-25T14:54:10;6.90;;;1.88;;
77417;SDS011;66490;51.484;0.026;2024-03-25T14:56:54;7.47;;;1.98;;
77417;SDS011;66490;51.484;0.026;2024-03-25T14:59:38;8.88;;;1.95;;
77417;SDS011;66490;51.484;0.026;2024-03-25T15:02:25;7.00;;;1.33;;
77417;SDS011;66490;51.484;0.026;2024-03-25T15:05:12;5.18;;;1.17;;
77417;SDS011;66490;51.484;0.026;2024-03-25T15:07:56;5.45;;;1.30;;
77417;SDS011;66490;51.484;0.026;2024-03-25T15:10:40;6.32;;;1.10;;
77417;SDS011;66490;51.484;0.026;2024-03-25T15:13:24;10.65;;;1.55;;
77417;SDS011;66490;51.484;0.026;2024-03-25T15:16:08;6.63;;;1.50;;
77417;SDS011;66490;51.484;0.026;2024-03-25T15:18:52;7.25;;;1.42;;
77417;SDS011;66490;51.484;0.026;2024-03-25T15:21:37;6.22;;;1.55;;
77417;SDS011;66490;51.484;0.026;2024-03-25T15:24:23;6.85;;;1.55;;
77417;SDS011;66490;51.484;0.026;2024-03-25T15:27:07;11.82;;;2.03;;
77417;SDS011;66490;51.484;0.026;2024-03-25T15:29:51;12.57;;;1.53;;
77417;SDS011;66490;51.484;0.026;2024-03-25T15:32:35;6.35;;;1.60;;
77417;SDS011;66490;51.484;0.026;2024-03-25T15:35:22;8.45;;;1.60;;
77417;SDS011;66490;51.484;0.026;2024-03-25T15:38:09;10.43;;;1.40;;
77417;SDS011;66490;51.484;0.026;2024-03-25T15:40:54;7.20;;;1.48;;
77417;SDS011;66490;51.484;0.026;2024-03-25T15:43:38;8.20;;;1.47;;
77417;SDS011;66490;51.484;0.026;2024-03-25T15:46:22;7.20;;;1.13;;
77417;SDS011;66490;51.484;0.026;2024-03-25T15:49:06;13.45;;;2.20;;
77417;SDS011;66490;51.484;0.026;2024-03-25T15:51:50;8.88;;;1.58;;
77417;SDS011;66490;51.484;0.026;2024-03-25T15:54:34;8.00;;;2.00;;
77417;SDS011;66490;51.484;0.026;2024-03-25T15:57:19;5.80;;;1.10;;
77417;SDS011;66490;51.484;0.026;2024-03-25T16:00:03;8.57;;;1.45;;
77417;SDS011;66490;51.484;0.026;2024-03-25T16:02:48;8.93;;;2.33;;
77417;SDS011;66490;51.484;0.026;2024-03-25T16:05:34;7.20;;;1.40;;
77417;SDS011;66490;51.484;0.026;2024-03-25T16:08:22;6.70;;;1.20;;
77417;SDS011;66490;51.484;0.026;2024-03-25T16:11:06;7.13;;;1.30;;
77417;SDS011;66490;51.484;0.026;2024-03-25T16:13:50;7.82;;;1.63;;
77417;SDS011;66490;51.484;0.026;2024-03-25T16:19:16;7.82;;;1.30;;
77417;SDS011;66490;51.484;0.026;2024-03-25T16:22:00;8.88;;;2.58;;
77417;SDS011;66490;51.484;0.026;2024-03-25T16:24:44;10.17;;;1.77;;
77417;SDS011;66490;51.484;0.026;2024-03-25T16:27:28;10.18;;;3.13;;
77417;SDS011;66490;51.484;0.026;2024-03-25T16:30:13;7.97;;;2.10;;
77417;SDS011;66490;51.484;0.026;2024-03-25T16:33:00;10.27;;;2.42;;
77417;SDS011;66490;51.484;0.026;2024-03-25T16:35:46;7.55;;;1.80;;
77417;SDS011;66490;51.484;0.026;2024-03-25T16:38:40;7.87;;;1.40;;
77417;SDS011;66490;51.484;0.026;2024-03-25T16:41:29;4.90;;;1.45;;
77417;SDS011;66490;51.484;0.026;2024-03-25T16:48:02;10.40;;;1.67;;
77417;SDS011;66490;51.484;0.026;2024-03-25T16:50:46;10.65;;;2.55;;
77417;SDS011;66490;51.484;0.026;2024-03-25T16:53:56;9.77;;;2.03;;
77417;SDS011;66490;51.484;0.026;2024-03-25T16:59:27;8.30;;;2.33;;
77417;SDS011;66490;51.484;0.026;2024-03-25T17:05:06;9.90;;;2.70;;
77417;SDS011;66490;51.484;0.026;2024-03-25T17:07:50;10.03;;;2.63;;
77417;SDS011;66490;51.484;0.026;2024-03-25T17:10:35;11.25;;;3.35;;
77417;SDS011;66490;51.484;0.026;2024-03-25T17:13:20;11.25;;;3.17;;
77417;SDS011;66490;51.484;0.026;2024-03-25T17:16:05;10.18;;;3.05;;
77417;SDS011;66490;51.484;0.026;2024-03-25T17:18:52;11.25;;;3.75;;